createdAt,value
2023-05-14T00:01:12.071Z,7.20
2023-05-14T00:02:45.067Z,7.05
2023-05-14T00:04:19.518Z,7.28
2023-05-14T00:05:52.220Z,7.18
2023-05-14T00:07:30.636Z,7.55
2023-05-14T00:09:02.900Z,6.88
2023-05-14T00:10:36.117Z,6.93
2023-05-14T00:12:08.640Z,6.75
2023-05-14T00:13:41.649Z,6.88
2023-05-14T00:15:14.796Z,7.10
2023-05-14T00:16:49.109Z,6.68
2023-05-14T00:18:22.174Z,7.10
2023-05-14T00:19:55.166Z,7.35
2023-05-14T00:21:28.264Z,6.68
2023-05-14T00:23:00.675Z,6.20
2023-05-14T00:24:33.616Z,6.80
2023-05-14T00:26:06.673Z,7.10
2023-05-14T00:27:38.727Z,6.63
2023-05-14T00:29:11.676Z,6.47
2023-05-14T00:30:45.158Z,6.90
2023-05-14T00:32:19.459Z,6.70
2023-05-14T00:33:52.357Z,7.05
2023-05-14T00:35:24.491Z,6.85
2023-05-14T00:36:57.420Z,7.07
2023-05-14T00:38:30.369Z,7.10
2023-05-14T00:40:03.672Z,7.60
2023-05-14T00:43:09.412Z,7.25
2023-05-14T00:44:42.423Z,7.28
2023-05-14T00:46:14.985Z,7.68
2023-05-14T00:47:49.692Z,7.72
2023-05-14T00:49:22.787Z,7.22
2023-05-14T00:50:55.925Z,11.25
2023-05-14T00:52:27.942Z,10.52
2023-05-14T00:54:01.018Z,8.35
2023-05-14T00:55:34.041Z,8.07
2023-05-14T00:57:08.150Z,7.97
2023-05-14T00:58:41.139Z,7.63
2023-05-14T01:00:15.038Z,7.60
2023-05-14T01:01:47.034Z,8.50
2023-05-14T01:03:21.482Z,7.65
2023-05-14T01:04:54.096Z,7.13
2023-05-14T01:06:34.591Z,7.90
2023-05-14T01:08:14.537Z,7.05
2023-05-14T01:09:54.638Z,7.65
2023-05-14T01:11:31.317Z,7.35
2023-05-14T01:13:13.785Z,7.40
2023-05-14T01:14:54.409Z,6.82
2023-05-14T01:16:29.351Z,7.55
2023-05-14T01:18:05.609Z,7.53
2023-05-14T01:19:42.122Z,7.03
2023-05-14T01:21:36.190Z,7.43
2023-05-14T01:23:09.111Z,6.85
2023-05-14T01:24:41.335Z,6.63
2023-05-14T01:26:14.260Z,7.43
2023-05-14T01:27:54.200Z,7.07
2023-05-14T01:29:29.612Z,6.63
2023-05-14T01:31:08.012Z,7.03
2023-05-14T01:32:40.678Z,7.00
2023-05-14T01:34:15.007Z,6.85
2023-05-14T01:35:48.251Z,6.47
2023-05-14T01:37:23.569Z,6.88
2023-05-14T01:38:56.542Z,6.28
2023-05-14T01:40:30.172Z,6.20
2023-05-14T01:42:04.590Z,7.85
2023-05-14T01:43:37.483Z,6.38
2023-05-14T01:45:11.578Z,6.25
2023-05-14T01:46:44.484Z,5.80
2023-05-14T01:48:17.727Z,6.00
2023-05-14T01:49:50.043Z,5.68
2023-05-14T01:51:22.965Z,5.88
2023-05-14T01:52:56.532Z,5.78
2023-05-14T01:54:29.701Z,5.60
2023-05-14T01:56:01.735Z,6.03
2023-05-14T01:57:34.797Z,5.97
2023-05-14T01:59:07.725Z,5.85
2023-05-14T02:00:40.626Z,5.72
2023-05-14T02:02:13.640Z,6.32
2023-05-14T02:03:45.692Z,5.70
2023-05-14T02:05:18.892Z,5.93
2023-05-14T02:06:51.202Z,6.07
2023-05-14T02:08:25.619Z,6.03
2023-05-14T02:09:58.730Z,5.32
2023-05-14T02:11:31.648Z,5.40
2023-05-14T02:13:04.620Z,5.15
2023-05-14T02:14:37.572Z,6.03
2023-05-14T02:16:10.887Z,6.07
2023-05-14T02:17:43.960Z,5.82
2023-05-14T02:19:15.981Z,5.90
2023-05-14T02:20:49.021Z,5.22
2023-05-14T02:22:21.941Z,5.80
2023-05-14T02:23:56.342Z,5.30
2023-05-14T02:25:29.220Z,5.95
2023-05-14T02:27:02.124Z,5.45
2023-05-14T02:28:35.071Z,6.38
2023-05-14T02:30:09.959Z,5.68
2023-05-14T02:31:43.454Z,5.65
2023-05-14T02:33:15.618Z,5.40
2023-05-14T02:34:48.658Z,5.70
2023-05-14T02:36:21.565Z,5.38
2023-05-14T02:37:54.758Z,5.60
2023-05-14T02:39:29.079Z,5.55
2023-05-14T02:41:02.007Z,5.53
2023-05-14T02:42:35.316Z,6.00
2023-05-14T02:45:41.007Z,5.30
2023-05-14T02:47:14.005Z,5.30
2023-05-14T02:48:46.954Z,5.75
2023-05-14T02:50:18.871Z,5.65
2023-05-14T02:51:51.796Z,5.68
2023-05-14T02:53:23.760Z,5.63
2023-05-14T02:54:58.074Z,5.68
2023-05-14T02:56:31.038Z,5.75
2023-05-14T02:58:04.051Z,5.47
2023-05-14T02:59:37.005Z,5.60
2023-05-14T03:01:09.512Z,6.00
2023-05-14T03:02:43.643Z,5.57
2023-05-14T03:04:17.068Z,5.70
2023-05-14T03:05:49.193Z,5.57
2023-05-14T03:07:22.137Z,5.85
2023-05-14T03:08:55.258Z,5.20
2023-05-14T03:10:28.607Z,5.55
2023-05-14T03:13:33.265Z,5.30
2023-05-14T03:15:06.836Z,5.63
2023-05-14T03:16:40.113Z,5.50
2023-05-14T03:19:45.811Z,5.07
2023-05-14T03:21:18.820Z,5.40
2023-05-14T03:22:51.761Z,5.50
2023-05-14T03:24:23.693Z,5.65
2023-05-14T03:25:58.038Z,5.97
2023-05-14T03:27:30.942Z,6.82
2023-05-14T03:29:04.247Z,6.80
2023-05-14T03:32:10.112Z,5.72
2023-05-14T03:33:43.108Z,6.25
2023-05-14T03:35:16.080Z,5.60
2023-05-14T03:36:49.129Z,6.03
2023-05-14T03:38:22.065Z,6.00
2023-05-14T03:39:55.010Z,5.82
2023-05-14T03:41:29.345Z,5.97
2023-05-14T03:43:02.287Z,6.13
2023-05-14T03:44:35.711Z,6.13
2023-05-14T03:46:08.580Z,5.72
2023-05-14T03:47:41.532Z,5.90
2023-05-14T03:49:14.561Z,5.60
2023-05-14T03:50:47.966Z,5.82
2023-05-14T03:52:20.950Z,5.57
2023-05-14T03:53:53.966Z,5.63
2023-05-14T03:55:26.877Z,5.53
2023-05-14T03:57:01.911Z,5.30
2023-05-14T03:58:34.952Z,5.57
2023-05-14T04:00:10.530Z,5.50
2023-05-14T04:01:43.425Z,5.38
2023-05-14T04:03:15.521Z,5.28
2023-05-14T04:04:48.661Z,5.53
2023-05-14T04:06:21.738Z,5.38
2023-05-14T04:07:54.728Z,5.47
2023-05-14T04:09:27.653Z,5.25
2023-05-14T04:11:00.664Z,5.93
2023-05-14T04:12:35.020Z,5.28
2023-05-14T04:14:08.037Z,5.70
2023-05-14T04:15:40.060Z,5.05
2023-05-14T04:17:12.999Z,5.07
2023-05-14T04:18:46.068Z,5.60
2023-05-14T04:20:19.094Z,6.40
2023-05-14T04:21:52.008Z,5.95
2023-05-14T04:23:24.921Z,5.45
2023-05-14T04:24:56.814Z,6.15
2023-05-14T04:26:29.725Z,6.10
2023-05-14T04:28:04.031Z,6.13
2023-05-14T04:29:37.013Z,5.63
2023-05-14T04:31:10.033Z,5.72
2023-05-14T04:32:43.057Z,5.97
2023-05-14T04:34:16.007Z,5.85
2023-05-14T04:35:47.923Z,5.57
2023-05-14T04:37:20.976Z,5.30
2023-05-14T04:38:53.909Z,4.88
2023-05-14T04:40:26.142Z,4.97
2023-05-14T04:41:59.277Z,5.05
2023-05-14T04:43:33.565Z,6.05
2023-05-14T04:45:07.436Z,5.07
2023-05-14T04:46:40.432Z,5.30
2023-05-14T04:48:13.318Z,5.38
2023-05-14T04:49:46.304Z,4.95
2023-05-14T04:51:19.394Z,4.95
2023-05-14T04:52:52.364Z,5.60
2023-05-14T04:54:25.396Z,5.18
2023-05-14T04:55:58.322Z,5.30
2023-05-14T04:57:30.378Z,5.30
2023-05-14T04:59:04.711Z,5.43
2023-05-14T05:00:36.986Z,4.95
2023-05-14T05:02:09.966Z,5.25
2023-05-14T05:03:42.950Z,4.80
2023-05-14T05:05:16.033Z,5.47
2023-05-14T05:06:48.953Z,5.20
2023-05-14T05:08:21.842Z,5.03
2023-05-14T05:09:54.834Z,5.18
2023-05-14T05:11:27.710Z,5.22
2023-05-14T05:13:01.158Z,5.00
2023-05-14T05:14:34.617Z,5.22
2023-05-14T05:16:07.958Z,5.30
2023-05-14T05:17:40.984Z,5.45
2023-05-14T05:19:14.015Z,5.28
2023-05-14T05:20:46.993Z,4.68
2023-05-14T05:22:20.549Z,4.97
2023-05-14T05:23:53.507Z,4.90
2023-05-14T05:25:26.472Z,5.22
2023-05-14T05:26:59.401Z,5.53
2023-05-14T05:28:32.277Z,5.00
2023-05-14T05:30:08.394Z,4.95
2023-05-14T05:31:41.445Z,5.20
2023-05-14T05:33:15.081Z,5.07
2023-05-14T05:34:48.046Z,4.82
2023-05-14T05:36:21.017Z,5.13
2023-05-14T05:37:53.955Z,5.25
2023-05-14T05:39:26.966Z,5.18
2023-05-14T05:40:59.927Z,5.13
2023-05-14T05:42:31.881Z,4.60
2023-05-14T05:44:05.747Z,5.93
2023-05-14T05:45:40.221Z,5.45
2023-05-14T05:47:13.568Z,5.20
2023-05-14T05:48:46.507Z,5.30
2023-05-14T05:50:20.053Z,4.93
2023-05-14T05:51:52.136Z,4.60
2023-05-14T05:53:25.257Z,4.97
2023-05-14T05:54:57.229Z,5.60
2023-05-14T05:56:30.134Z,5.00
2023-05-14T05:58:03.092Z,5.30
2023-05-14T05:59:36.187Z,5.32
2023-05-14T06:01:10.647Z,5.32
2023-05-14T06:02:44.113Z,5.38
2023-05-14T06:04:17.460Z,5.10
2023-05-14T06:05:50.710Z,5.75
2023-05-14T06:07:23.691Z,5.55
2023-05-14T06:08:56.696Z,6.72
2023-05-14T06:10:29.992Z,5.38
2023-05-14T06:12:03.067Z,5.07
2023-05-14T06:13:36.069Z,5.63
2023-05-14T06:15:09.936Z,5.10
2023-05-14T06:16:44.262Z,5.25
2023-05-14T06:18:17.402Z,5.57
2023-05-14T06:19:50.392Z,5.60
2023-05-14T06:21:22.427Z,5.63
2023-05-14T06:22:55.459Z,4.80
2023-05-14T06:24:28.341Z,5.10
2023-05-14T06:26:01.452Z,5.53
2023-05-14T06:27:34.429Z,4.90
2023-05-14T06:29:07.415Z,5.10
2023-05-14T06:30:40.492Z,4.93
2023-05-14T06:32:15.583Z,5.18
2023-05-14T06:33:48.688Z,4.88
2023-05-14T06:35:21.726Z,4.82
2023-05-14T06:36:54.603Z,4.70
2023-05-14T06:38:27.543Z,4.85
2023-05-14T06:40:00.503Z,5.40
2023-05-14T06:41:33.477Z,4.70
2023-05-14T06:43:06.642Z,5.13
2023-05-14T06:44:39.548Z,4.45
2023-05-14T06:46:12.418Z,5.20
2023-05-14T06:47:46.723Z,4.47
2023-05-14T06:49:20.051Z,4.70
2023-05-14T06:52:24.889Z,4.72
2023-05-14T06:53:57.803Z,4.75
2023-05-14T06:55:29.971Z,4.65
2023-05-14T06:57:02.862Z,4.63
2023-05-14T06:58:35.846Z,4.82
2023-05-14T07:00:09.866Z,4.72
2023-05-14T07:01:42.907Z,4.50
2023-05-14T07:03:17.247Z,4.30
2023-05-14T07:04:50.236Z,4.65
2023-05-14T07:06:23.277Z,4.22
2023-05-14T07:07:56.234Z,4.22
2023-05-14T07:09:29.194Z,4.65
2023-05-14T07:11:02.165Z,6.30
2023-05-14T07:12:35.200Z,4.82
2023-05-14T07:14:08.104Z,4.82
2023-05-14T07:15:41.105Z,4.82
2023-05-14T07:17:14.101Z,4.68
2023-05-14T07:18:48.515Z,4.78
2023-05-14T07:20:23.806Z,4.50
2023-05-14T07:21:57.340Z,4.70
2023-05-14T07:25:03.302Z,4.50
2023-05-14T07:26:36.320Z,4.75
2023-05-14T07:28:09.278Z,4.72
2023-05-14T07:29:42.192Z,4.90
2023-05-14T07:31:15.211Z,4.93
2023-05-14T07:32:48.245Z,4.72
2023-05-14T07:34:22.918Z,4.72
2023-05-14T07:35:55.969Z,4.72
2023-05-14T07:37:29.001Z,5.22
2023-05-14T07:39:02.092Z,5.18
2023-05-14T07:40:35.046Z,4.80
2023-05-14T07:42:08.138Z,4.53
2023-05-14T07:43:41.651Z,4.47
2023-05-14T07:45:14.563Z,5.00
2023-05-14T07:46:47.560Z,4.80
2023-05-14T07:48:19.584Z,4.55
2023-05-14T07:49:57.344Z,5.00
2023-05-14T07:51:30.594Z,4.68
2023-05-14T07:54:36.251Z,4.57
2023-05-14T07:56:09.872Z,4.45
2023-05-14T07:57:42.820Z,4.05
2023-05-14T07:59:15.868Z,4.45
2023-05-14T08:00:48.829Z,4.57
2023-05-14T08:02:22.130Z,4.28
2023-05-14T08:03:55.410Z,4.70
2023-05-14T08:08:35.448Z,4.72
2023-05-14T08:10:09.602Z,4.38
2023-05-14T08:11:42.617Z,4.60
2023-05-14T08:13:15.582Z,4.32
2023-05-14T08:14:48.844Z,4.78
2023-05-14T08:17:54.712Z,4.28
2023-05-14T08:19:27.876Z,4.70
2023-05-14T08:21:03.527Z,5.40
2023-05-14T08:22:36.782Z,4.50
2023-05-14T08:24:09.950Z,4.65
2023-05-14T08:25:42.859Z,4.63
2023-05-14T08:27:16.592Z,4.95
2023-05-14T08:28:49.526Z,4.75
2023-05-14T08:30:23.337Z,4.35
2023-05-14T08:31:56.507Z,4.45
2023-05-14T08:33:29.403Z,4.13
2023-05-14T08:35:02.363Z,4.07
2023-05-14T08:36:36.710Z,4.75
2023-05-14T08:38:09.748Z,5.88
2023-05-14T08:39:42.736Z,4.50
2023-05-14T08:41:16.914Z,3.95
2023-05-14T08:42:52.133Z,4.63
2023-05-14T08:44:33.952Z,4.18
2023-05-14T08:46:10.637Z,4.40
2023-05-14T08:47:45.906Z,4.45
2023-05-14T08:49:34.505Z,4.32
2023-05-14T08:51:08.757Z,4.32
2023-05-14T08:52:43.114Z,4.40
2023-05-14T08:54:17.799Z,4.40
2023-05-14T08:55:52.429Z,4.78
2023-05-14T08:57:27.063Z,4.45
2023-05-14T08:59:00.187Z,4.10
2023-05-14T09:00:33.182Z,4.70
2023-05-14T09:02:07.854Z,4.70
2023-05-14T09:03:41.691Z,5.10
2023-05-14T09:05:15.890Z,4.47
2023-05-14T09:06:53.436Z,4.03
2023-05-14T09:08:28.211Z,5.65
2023-05-14T09:10:02.179Z,4.70
2023-05-14T09:11:35.639Z,4.40
2023-05-14T09:13:10.091Z,4.43
2023-05-14T09:14:43.152Z,4.30
2023-05-14T09:16:17.969Z,4.50
2023-05-14T09:17:50.947Z,4.10
2023-05-14T09:19:24.404Z,4.13
2023-05-14T09:20:57.395Z,4.32
2023-05-14T09:22:32.853Z,4.68
2023-05-14T09:24:10.129Z,4.40
2023-05-14T09:25:43.948Z,4.38
2023-05-14T09:27:20.635Z,4.30
2023-05-14T09:28:56.425Z,4.20
2023-05-14T09:30:29.543Z,4.30
2023-05-14T09:32:04.952Z,3.83
2023-05-14T09:33:37.995Z,4.35
2023-05-14T09:35:12.811Z,4.13
2023-05-14T09:36:45.901Z,4.25
2023-05-14T09:38:18.864Z,4.43
2023-05-14T09:39:53.188Z,4.20
2023-05-14T09:41:26.280Z,4.30
2023-05-14T09:42:59.391Z,3.65
2023-05-14T09:46:07.991Z,3.63
2023-05-14T09:47:41.243Z,4.47
2023-05-14T09:49:14.739Z,4.10
2023-05-14T09:50:48.107Z,4.20
2023-05-14T09:52:21.190Z,4.15
2023-05-14T09:53:56.198Z,4.05
2023-05-14T09:55:33.556Z,4.07
2023-05-14T09:57:06.978Z,3.90
2023-05-14T09:58:40.017Z,3.95
2023-05-14T10:00:14.242Z,3.97
2023-05-14T10:01:47.434Z,3.58
2023-05-14T10:04:58.032Z,3.63
2023-05-14T10:06:36.869Z,3.50
2023-05-14T10:08:14.444Z,3.50
2023-05-14T10:09:50.344Z,3.40
2023-05-14T10:11:26.750Z,3.53
2023-05-14T10:13:04.381Z,3.58
2023-05-14T10:14:42.084Z,3.40
2023-05-14T10:16:20.642Z,3.58
2023-05-14T10:17:57.937Z,3.72
2023-05-14T10:19:35.570Z,3.65
2023-05-14T10:21:10.647Z,3.88
2023-05-14T10:22:43.638Z,3.67
2023-05-14T10:24:17.162Z,3.92
2023-05-14T10:25:53.288Z,3.45
2023-05-14T10:27:28.448Z,3.42
2023-05-14T10:29:01.495Z,3.70
2023-05-14T10:30:34.618Z,4.07
2023-05-14T10:33:51.335Z,3.85
2023-05-14T10:35:27.213Z,3.70
2023-05-14T10:37:01.727Z,3.95
2023-05-14T10:38:35.871Z,4.18
2023-05-14T10:40:10.724Z,4.03
2023-05-14T10:41:44.004Z,3.63
2023-05-14T10:44:58.202Z,3.63
2023-05-14T10:46:31.436Z,3.80
2023-05-14T10:49:43.276Z,3.67
2023-05-14T10:51:20.902Z,4.18
2023-05-14T10:52:55.259Z,3.38
2023-05-14T10:54:29.393Z,3.67
2023-05-14T10:56:05.939Z,3.55
2023-05-14T10:57:41.082Z,3.30
2023-05-14T10:59:19.699Z,3.92
2023-05-14T11:00:56.775Z,3.33
2023-05-14T11:02:33.104Z,3.50
2023-05-14T11:04:06.580Z,3.45
2023-05-14T11:05:42.113Z,4.00
2023-05-14T11:07:14.228Z,3.78
2023-05-14T11:08:47.105Z,4.50
2023-05-14T11:10:21.987Z,3.67
2023-05-14T11:11:55.594Z,3.83
2023-05-14T11:13:29.035Z,3.50
2023-05-14T11:15:04.990Z,3.50
2023-05-14T11:16:38.123Z,3.70
2023-05-14T11:18:11.912Z,3.40
2023-05-14T11:19:44.787Z,3.38
2023-05-14T11:21:18.784Z,3.28
2023-05-14T11:22:52.508Z,3.42
2023-05-14T11:24:25.900Z,3.45
2023-05-14T11:25:59.039Z,3.55
2023-05-14T11:27:35.892Z,3.45
2023-05-14T11:29:08.945Z,3.70
2023-05-14T11:30:44.344Z,3.47
2023-05-14T11:32:18.339Z,3.50
2023-05-14T11:33:53.468Z,3.90
2023-05-14T11:35:27.176Z,3.97
2023-05-14T11:37:00.069Z,3.50
2023-05-14T11:38:33.112Z,3.47
2023-05-14T11:40:15.052Z,3.47
2023-05-14T11:41:48.053Z,3.45
2023-05-14T11:43:23.583Z,3.63
2023-05-14T11:44:56.689Z,3.22
2023-05-14T11:46:31.211Z,3.70
2023-05-14T11:48:12.489Z,3.55
2023-05-14T11:49:45.728Z,3.17
2023-05-14T11:52:51.586Z,3.40
2023-05-14T11:54:27.381Z,3.42
2023-05-14T11:56:00.391Z,3.20
2023-05-14T11:57:33.322Z,3.05
2023-05-14T11:59:06.273Z,3.15
2023-05-14T12:00:40.781Z,3.28
2023-05-14T12:02:16.463Z,3.00
2023-05-14T12:03:48.752Z,3.80
2023-05-14T12:05:22.159Z,3.53
2023-05-14T12:06:55.393Z,3.55
2023-05-14T12:10:03.417Z,3.20
2023-05-14T12:11:38.453Z,3.42
2023-05-14T12:13:11.484Z,3.47
2023-05-14T12:14:45.406Z,3.83
2023-05-14T12:16:18.402Z,6.53
2023-05-14T12:17:52.884Z,3.35
2023-05-14T12:19:26.038Z,3.40
2023-05-14T12:22:37.156Z,3.10
2023-05-14T12:24:12.314Z,3.60
2023-05-14T12:25:51.890Z,3.40
2023-05-14T12:27:26.227Z,3.40
2023-05-14T12:29:01.767Z,3.50
2023-05-14T12:30:39.108Z,3.55
2023-05-14T12:32:12.096Z,3.42
2023-05-14T12:33:46.489Z,3.85
2023-05-14T12:35:19.709Z,3.30
2023-05-14T12:38:25.763Z,3.30
2023-05-14T12:39:58.684Z,3.00
2023-05-14T12:41:31.959Z,3.20
2023-05-14T12:44:37.674Z,2.97
2023-05-14T12:46:10.815Z,3.15
2023-05-14T12:49:18.042Z,3.00
2023-05-14T12:50:51.198Z,3.50
2023-05-14T12:52:36.811Z,3.03
2023-05-14T12:54:12.062Z,3.25
2023-05-14T12:55:45.092Z,3.42
2023-05-14T12:57:19.680Z,3.63
2023-05-14T12:58:52.626Z,3.30
2023-05-14T13:00:25.797Z,3.25
2023-05-14T13:01:59.043Z,3.13
2023-05-14T13:03:32.332Z,3.40
2023-05-14T13:05:07.255Z,3.30
2023-05-14T13:06:40.448Z,3.45
2023-05-14T13:09:50.668Z,3.50
2023-05-14T13:11:23.707Z,3.53
2023-05-14T13:12:59.852Z,3.35
2023-05-14T13:14:33.222Z,3.20
2023-05-14T13:16:06.939Z,3.17
2023-05-14T13:17:41.189Z,3.03
2023-05-14T13:19:14.389Z,3.35
2023-05-14T13:22:21.813Z,3.03
2023-05-14T13:23:54.849Z,2.92
2023-05-14T13:25:28.573Z,2.80
2023-05-14T13:27:01.828Z,3.10
2023-05-14T13:30:07.755Z,3.10
2023-05-14T13:31:40.792Z,3.20
2023-05-14T13:33:12.803Z,3.28
2023-05-14T13:34:45.971Z,3.00
2023-05-14T13:37:52.561Z,2.83
2023-05-14T13:39:27.196Z,3.00
2023-05-14T13:41:02.607Z,3.00
2023-05-14T13:42:36.541Z,3.08
2023-05-14T13:44:09.503Z,3.00
2023-05-14T13:45:42.540Z,3.08
2023-05-14T13:47:18.203Z,2.67
2023-05-14T13:48:51.135Z,2.83
2023-05-14T13:50:24.246Z,2.90
2023-05-14T13:55:04.992Z,2.78
2023-05-14T13:56:38.015Z,3.25
2023-05-14T13:58:11.064Z,2.75
2023-05-14T13:59:44.235Z,3.03
2023-05-14T14:02:50.694Z,2.90
2023-05-14T14:04:25.638Z,2.90
2023-05-14T14:05:58.663Z,3.03
2023-05-14T14:07:32.998Z,2.97
2023-05-14T14:09:06.045Z,2.70
2023-05-14T14:10:41.060Z,2.60
2023-05-14T14:12:14.021Z,2.90
2023-05-14T14:13:47.214Z,2.63
2023-05-14T14:16:53.074Z,2.80
2023-05-14T14:18:26.085Z,3.80
2023-05-14T14:19:59.078Z,2.97
2023-05-14T14:21:32.691Z,2.63
2023-05-14T14:23:06.986Z,2.75
2023-05-14T14:24:39.954Z,2.72
2023-05-14T14:26:13.098Z,3.00
2023-05-14T14:27:46.526Z,2.70
2023-05-14T14:29:21.929Z,2.90
2023-05-14T14:30:55.039Z,2.78
2023-05-14T14:32:28.406Z,3.00
2023-05-14T14:34:01.357Z,3.20
2023-05-14T14:35:35.437Z,2.67
2023-05-14T14:37:08.417Z,2.92
2023-05-14T14:38:42.827Z,3.08
2023-05-14T14:40:16.179Z,2.75
2023-05-14T14:41:49.095Z,2.85
2023-05-14T14:43:22.093Z,3.22
2023-05-14T14:44:55.049Z,3.08
2023-05-14T14:46:28.663Z,3.03
2023-05-14T14:48:31.494Z,2.65
2023-05-14T14:50:04.853Z,2.70
2023-05-14T14:51:37.961Z,3.05
2023-05-14T14:53:11.170Z,3.10
2023-05-14T14:56:18.620Z,2.97
2023-05-14T14:57:51.694Z,2.90
2023-05-14T14:59:24.707Z,2.78
2023-05-14T15:00:58.816Z,2.88
2023-05-14T15:02:31.977Z,3.10
2023-05-14T15:05:37.901Z,2.83
2023-05-14T15:07:11.147Z,3.25
2023-05-14T15:08:44.062Z,3.33
2023-05-14T15:10:18.454Z,3.75
2023-05-14T15:11:51.450Z,3.50
2023-05-14T15:13:24.567Z,3.88
2023-05-14T15:14:57.723Z,3.20
2023-05-14T15:16:30.876Z,3.58
2023-05-14T15:19:37.335Z,3.35
2023-05-14T15:21:10.383Z,3.40
2023-05-14T15:22:43.930Z,3.50
2023-05-14T15:24:16.901Z,3.33
2023-05-14T15:25:51.337Z,3.03
2023-05-14T15:27:24.224Z,3.10
2023-05-14T15:28:58.387Z,3.05
2023-05-14T15:30:33.915Z,2.95
2023-05-14T15:32:10.051Z,2.83
2023-05-14T15:33:43.590Z,2.72
2023-05-14T15:35:16.548Z,2.90
2023-05-14T15:36:52.641Z,2.63
2023-05-14T15:38:25.525Z,2.85
2023-05-14T15:39:58.542Z,2.60
2023-05-14T15:41:34.407Z,2.85
2023-05-14T15:43:07.360Z,3.40
2023-05-14T15:44:40.449Z,2.90
2023-05-14T15:47:51.138Z,3.05
2023-05-14T15:49:24.384Z,3.00
2023-05-14T15:52:30.384Z,3.15
2023-05-14T15:55:36.413Z,3.40
2023-05-14T16:00:17.534Z,3.15
2023-05-14T16:01:51.619Z,3.30
2023-05-14T16:03:27.484Z,3.28
2023-05-14T16:05:00.872Z,3.28
2023-05-14T16:06:35.298Z,3.95
2023-05-14T16:08:08.505Z,3.28
2023-05-14T16:11:13.556Z,3.35
2023-05-14T16:12:47.926Z,3.28
2023-05-14T16:14:21.179Z,3.40
2023-05-14T16:17:27.740Z,3.22
2023-05-14T16:19:00.739Z,3.55
2023-05-14T16:20:33.874Z,3.35
2023-05-14T16:22:06.957Z,3.45
2023-05-14T16:23:42.754Z,3.80
2023-05-14T16:25:16.038Z,3.17
2023-05-14T16:26:49.045Z,3.10
2023-05-14T16:28:23.705Z,3.42
2023-05-14T16:29:56.995Z,3.28
2023-05-14T16:33:04.752Z,3.80
2023-05-14T16:34:38.016Z,3.83
2023-05-14T16:37:42.846Z,3.50
2023-05-14T16:39:16.612Z,3.85
2023-05-14T16:40:50.071Z,3.28
2023-05-14T16:42:23.104Z,3.17
2023-05-14T16:43:57.453Z,3.53
2023-05-14T16:45:32.595Z,3.40
2023-05-14T16:47:06.096Z,3.22
2023-05-14T16:48:39.152Z,3.40
2023-05-14T16:50:12.609Z,3.47
2023-05-14T16:51:45.578Z,3.20
2023-05-14T16:53:17.591Z,3.80
2023-05-14T16:54:50.991Z,3.65
2023-05-14T16:56:24.271Z,3.90
2023-05-14T16:57:57.222Z,3.30
2023-05-14T16:59:34.061Z,3.55
2023-05-14T17:01:09.335Z,3.70
2023-05-14T17:02:42.710Z,3.78
2023-05-14T17:04:16.001Z,3.55
2023-05-14T17:05:49.006Z,3.70
2023-05-14T17:07:24.642Z,4.10
2023-05-14T17:08:57.594Z,3.80
2023-05-14T17:10:33.144Z,3.53
2023-05-14T17:12:06.682Z,3.60
2023-05-14T17:13:39.851Z,4.13
2023-05-14T17:16:47.475Z,3.90
2023-05-14T17:18:20.613Z,3.75
2023-05-14T17:21:26.780Z,3.75
2023-05-14T17:22:59.766Z,3.97
2023-05-14T17:24:32.739Z,3.78
2023-05-14T17:26:05.756Z,3.80
2023-05-14T17:27:38.848Z,4.40
2023-05-14T17:30:44.926Z,3.92
2023-05-14T17:32:18.054Z,3.97
2023-05-14T17:33:51.084Z,3.60
2023-05-14T17:35:24.260Z,3.63
2023-05-14T17:36:57.506Z,3.53
2023-05-14T17:38:30.571Z,4.15
2023-05-14T17:40:03.587Z,3.70
2023-05-14T17:41:36.513Z,3.60
2023-05-14T17:43:09.534Z,3.83
2023-05-14T17:44:42.475Z,3.92
2023-05-14T17:46:16.855Z,4.45
2023-05-14T17:47:51.365Z,4.15
2023-05-14T17:49:24.425Z,3.83
2023-05-14T17:50:57.331Z,3.63
2023-05-14T17:52:30.309Z,3.90
2023-05-14T17:54:03.468Z,4.03
2023-05-14T17:57:12.979Z,4.28
2023-05-14T17:58:46.195Z,4.50
2023-05-14T18:01:52.579Z,4.28
2023-05-14T18:03:25.545Z,4.40
2023-05-14T18:05:00.134Z,4.13
2023-05-14T18:06:33.157Z,4.32
2023-05-14T18:08:06.520Z,4.47
2023-05-14T18:09:39.604Z,3.75
2023-05-14T18:11:12.611Z,4.30
2023-05-14T18:12:45.478Z,3.80
2023-05-14T18:14:18.606Z,3.88
2023-05-14T18:15:54.130Z,4.22
2023-05-14T18:17:28.609Z,4.43
2023-05-14T18:19:01.583Z,4.55
2023-05-14T18:20:35.589Z,4.65
2023-05-14T18:22:08.747Z,4.70
2023-05-14T18:23:41.686Z,3.88
2023-05-14T18:25:14.744Z,4.20
2023-05-14T18:26:47.836Z,3.67
2023-05-14T18:28:21.442Z,3.97
2023-05-14T18:29:54.554Z,4.00
2023-05-14T18:31:28.486Z,4.00
2023-05-14T18:33:03.413Z,3.90
2023-05-14T18:34:36.506Z,3.88
2023-05-14T18:36:09.681Z,3.80
2023-05-14T18:37:42.597Z,3.80
2023-05-14T18:39:15.527Z,6.55
2023-05-14T18:40:49.373Z,4.82
2023-05-14T18:42:22.345Z,3.60
2023-05-14T18:43:55.420Z,3.92
2023-05-14T18:45:28.577Z,3.55
2023-05-14T18:47:00.585Z,3.42
2023-05-14T18:48:34.928Z,4.82
2023-05-14T18:50:09.091Z,3.80
2023-05-14T18:51:42.129Z,3.55
2023-05-14T18:53:15.073Z,3.35
2023-05-14T18:54:48.005Z,3.55
2023-05-14T18:56:21.503Z,3.60
2023-05-14T18:57:54.497Z,3.55
2023-05-14T18:59:27.424Z,3.80
2023-05-14T19:01:00.370Z,3.55
2023-05-14T19:02:33.391Z,3.35
2023-05-14T19:04:08.178Z,3.80
2023-05-14T19:05:41.180Z,3.58
2023-05-14T19:07:15.083Z,3.10
2023-05-14T19:08:48.024Z,3.53
2023-05-14T19:10:21.035Z,3.15
2023-05-14T19:11:53.972Z,4.03
2023-05-14T19:13:28.531Z,3.65
2023-05-14T19:15:01.864Z,3.78
2023-05-14T19:18:07.814Z,3.28
2023-05-14T19:19:42.179Z,3.08
2023-05-14T19:21:15.924Z,3.30
2023-05-14T19:22:48.831Z,3.65
2023-05-14T19:24:21.716Z,3.20
2023-05-14T19:25:54.649Z,3.63
2023-05-14T19:27:27.755Z,3.63
2023-05-14T19:29:00.668Z,3.22
2023-05-14T19:30:33.608Z,3.58
2023-05-14T19:32:07.654Z,3.35
2023-05-14T19:33:40.752Z,3.60
2023-05-14T19:35:15.082Z,4.47
2023-05-14T19:36:48.045Z,3.55
2023-05-14T19:38:21.210Z,3.85
2023-05-14T19:39:54.180Z,3.50
2023-05-14T19:41:27.729Z,3.40
2023-05-14T19:43:00.708Z,3.22
2023-05-14T19:44:33.751Z,8.93
2023-05-14T19:46:06.778Z,3.20
2023-05-14T19:47:39.958Z,3.20
2023-05-14T19:49:13.048Z,3.70
2023-05-14T19:50:47.746Z,3.67
2023-05-14T19:52:20.848Z,3.78
2023-05-14T19:53:53.877Z,3.50
2023-05-14T19:55:27.048Z,4.20
2023-05-14T19:58:33.035Z,4.05
2023-05-14T20:00:08.812Z,4.22
2023-05-14T20:01:41.917Z,3.70
2023-05-14T20:03:15.257Z,4.15
2023-05-14T20:06:22.410Z,3.38
2023-05-14T20:07:55.702Z,3.60
2023-05-14T20:11:01.548Z,3.50
2023-05-14T20:12:34.546Z,4.53
2023-05-14T20:14:07.465Z,4.20
2023-05-14T20:15:40.603Z,3.70
2023-05-14T20:17:13.768Z,4.00
2023-05-14T20:20:19.741Z,4.00
2023-05-14T20:21:54.198Z,3.80
2023-05-14T20:23:27.347Z,4.38
2023-05-14T20:25:00.254Z,3.40
2023-05-14T20:26:33.286Z,3.45
2023-05-14T20:28:06.387Z,3.35
2023-05-14T20:29:39.476Z,3.50
2023-05-14T20:31:12.465Z,3.40
2023-05-14T20:32:45.560Z,4.05
2023-05-14T20:34:19.016Z,3.58
2023-05-14T20:37:26.702Z,4.30
2023-05-14T20:39:00.478Z,4.00
2023-05-14T20:40:33.472Z,3.72
2023-05-14T20:42:07.152Z,4.00
2023-05-14T20:43:40.287Z,3.95
2023-05-14T20:45:12.300Z,3.92
2023-05-14T20:46:45.622Z,3.60
2023-05-14T20:48:21.153Z,3.33
2023-05-14T20:49:54.146Z,3.50
2023-05-14T20:51:27.228Z,3.40
2023-05-14T20:53:01.548Z,4.03
2023-05-14T20:54:34.456Z,3.60
2023-05-14T20:56:07.657Z,3.45
2023-05-14T20:59:16.448Z,3.50
2023-05-14T21:00:49.430Z,3.38
2023-05-14T21:02:22.448Z,3.33
2023-05-14T21:03:55.695Z,3.45
2023-05-14T21:07:02.731Z,2.78
2023-05-14T21:08:39.134Z,3.25
2023-05-14T21:10:12.543Z,3.00
2023-05-14T21:11:45.997Z,3.25
2023-05-14T21:13:18.976Z,3.33
2023-05-14T21:14:51.832Z,3.53
2023-05-14T21:16:25.119Z,3.17
2023-05-14T21:19:31.127Z,3.35
2023-05-14T21:21:04.330Z,2.83
2023-05-14T21:22:37.340Z,3.53
2023-05-14T21:24:10.725Z,3.40
2023-05-14T21:25:43.795Z,3.28
2023-05-14T21:27:16.833Z,3.58
2023-05-14T21:28:50.180Z,3.17
2023-05-14T21:31:55.087Z,3.42
2023-05-14T21:33:28.189Z,3.50
2023-05-14T21:35:01.267Z,3.20
2023-05-14T21:36:34.446Z,4.55
2023-05-14T21:38:08.891Z,4.50
2023-05-14T21:39:43.356Z,3.70
2023-05-14T21:41:16.656Z,3.90
2023-05-14T21:44:22.798Z,2.95
2023-05-14T21:47:29.808Z,3.72
2023-05-14T21:50:35.752Z,3.40
2023-05-14T21:52:08.955Z,3.50
2023-05-14T21:53:41.902Z,3.67
2023-05-14T21:55:15.342Z,3.40
2023-05-14T21:56:48.518Z,3.72
2023-05-14T21:58:21.498Z,4.57
2023-05-14T21:59:54.706Z,5.03
2023-05-14T22:01:27.716Z,4.40
2023-05-14T22:03:00.766Z,5.22
2023-05-14T22:04:33.800Z,3.80
2023-05-14T22:06:07.246Z,4.10
2023-05-14T22:07:40.358Z,4.25
2023-05-14T22:09:13.276Z,4.40
2023-05-14T22:10:47.910Z,3.97
2023-05-14T22:12:20.979Z,4.18
2023-05-14T22:13:53.870Z,4.32
2023-05-14T22:15:26.987Z,4.03
2023-05-14T22:17:00.041Z,4.25
2023-05-14T22:18:33.781Z,4.32
2023-05-14T22:20:08.981Z,3.78
2023-05-14T22:21:42.016Z,4.38